YASF weather

Ashford Airport
New South Wales, Australia

Public forecast

Using degrees Celsius for public forecast. Weather courtesy of forecast.io.

METAR (pilot weather report)

Closest report is Moree Airport, 64.0 nm (118.5 km) W. Retrieved 2019/06/25 10:00 UTC (54 minutes ago):

YMOR 251000Z AUTO 13011KT 9999 // NCD 15/04 Q1028

TAF (pilot weather forecast)

Closest forecast is Tamworth Airport, 106.6 nm (197.5 km) S. Retrieved 2019/06/25 06:36 UTC (4 hours ago):

TAF YSTW 250512Z 2506/2524 11012KT CAVOK FM251000 13006KT 9999 FEW010